This is the latest recevied weather packets stored in our database for station/object KK4KTV-13. If no packets are shown the sender has not sent any weather packets the latest 10 day(s).
| Time | Temp. | Humidity | Pressure | Rain* | Wind** | Luminosity | Snow |
|---|---|---|---|---|---|---|---|
| 1777661484 | 16.11° C | 63% | 1013.3 hPa | 0 mm | - | 217 W/m² | - |
| 1777661181 | 16.11° C | 62% | 1013.3 hPa | 0 mm | - | 793 W/m² | - |
| 1777660875 | 15.56° C | 66% | 1013.4 hPa | 0 mm | - | 320 W/m² | - |
| 1777660572 | 15° C | 67% | 1013.3 hPa | 0 mm | - | 162 W/m² | - |
| 1777660269 | 15° C | 68% | 1013.3 hPa | 0 mm | - | 241 W/m² | - |
| 1777659966 | 15° C | 67% | 1013.4 hPa | 0 mm | - | 265 W/m² | - |
| 1777659662 | 15° C | 67% | 1013.4 hPa | 0 mm | - | 204 W/m² | - |
| 1777659359 | 15° C | 66% | 1013.3 hPa | 0 mm | - | 172 W/m² | - |
| 1777659056 | 15° C | 66% | 1013.3 hPa | 0 mm | - | 218 W/m² | - |
| 1777658754 | 15° C | 65% | 1013.3 hPa | 0 mm | - | 261 W/m² | - |
| 1777658450 | 15° C | 67% | 1013.3 hPa | 0 mm | - | 294 W/m² | - |
| 1777658147 | 15° C | 66% | 1013.5 hPa | 0 mm | - | 145 W/m² | - |
| 1777657844 | 15° C | 65% | 1013.5 hPa | 0 mm | - | 102 W/m² | - |
| 1777657541 | 15.56° C | 64% | 1013.6 hPa | 0 mm | - | 155 W/m² | - |
| 1777657239 | 16.11° C | 62% | 1013.5 hPa | 0 mm | - | 193 W/m² | - |
| 1777656935 | 16.67° C | 60% | 1013.5 hPa | 0 mm | - | 249 W/m² | - |
| 1777656632 | 16.11° C | 58% | 1013.3 hPa | 0 mm | - | 229 W/m² | - |
| 1777656327 | 16.67° C | 56% | 1013.4 hPa | 0 mm | - | 188 W/m² | - |
| 1777656023 | 16.67° C | 54% | 1013.3 hPa | 0 mm | - | 365 W/m² | - |
| 1777655720 | 16.67° C | 54% | 1013.2 hPa | 0 mm | - | 387 W/m² | - |
| 1777655416 | 16.67° C | 53% | 1013.2 hPa | 0 mm | - | 380 W/m² | - |
| 1777655113 | 16.67° C | 54% | 1013.2 hPa | 0 mm | - | 422 W/m² | - |
| 1777654810 | 17.78° C | 53% | 1013.3 hPa | 0 mm | - | 281 W/m² | - |
| 1777654509 | 18.33° C | 48% | 1013.3 hPa | 0 mm | - | 984 W/m² | - |
| 1777654206 | 17.78° C | 51% | 1013.2 hPa | 0 mm | - | 1021 W/m² | - |
* Rain latest hour (hover to see other rain measurements)
** Current wind speed in m/s (hover to see current wind gust speed)